createdAt,value
2018-08-12T00:00:52.625Z,0.00
2018-08-12T00:01:52.491Z,0.00
2018-08-12T00:02:52.644Z,0.00
2018-08-12T00:03:52.442Z,0.00
2018-08-12T00:04:52.557Z,0.00
2018-08-12T00:05:52.398Z,0.00
2018-08-12T00:06:52.569Z,0.00
2018-08-12T00:07:52.351Z,0.00
2018-08-12T00:08:52.481Z,0.00
2018-08-12T00:09:52.308Z,0.00
2018-08-12T00:10:52.507Z,0.00
2018-08-12T00:11:52.264Z,0.00
2018-08-12T00:12:52.405Z,0.00
2018-08-12T00:13:52.215Z,0.00
2018-08-12T00:14:52.316Z,0.00
2018-08-12T00:15:52.170Z,0.00
2018-08-12T00:16:52.333Z,0.00
2018-08-12T00:17:52.129Z,0.00
2018-08-12T00:18:52.243Z,0.00
2018-08-12T00:19:52.077Z,0.00
2018-08-12T00:20:52.256Z,0.00
2018-08-12T00:21:52.039Z,0.00
2018-08-12T00:22:52.168Z,0.00
2018-08-12T00:23:51.986Z,0.00
2018-08-12T00:24:52.080Z,0.00
2018-08-12T00:25:51.946Z,0.00
2018-08-12T00:26:51.992Z,0.00
2018-08-12T00:27:51.895Z,0.00
2018-08-12T00:28:52.005Z,0.00
2018-08-12T00:29:51.843Z,0.00
2018-08-12T00:30:51.918Z,0.00
2018-08-12T00:31:51.808Z,0.00
2018-08-12T00:32:51.828Z,0.00
2018-08-12T00:33:51.765Z,0.00
2018-08-12T00:34:51.843Z,0.00
2018-08-12T00:35:51.712Z,0.00
2018-08-12T00:36:51.755Z,0.00
2018-08-12T00:37:51.667Z,0.00
2018-08-12T00:38:51.768Z,0.00
2018-08-12T00:39:51.616Z,0.00
2018-08-12T00:40:51.683Z,0.00
2018-08-12T00:41:51.580Z,0.00
2018-08-12T00:42:51.592Z,0.00
2018-08-12T00:43:51.529Z,0.00
2018-08-12T00:44:51.606Z,0.00
2018-08-12T00:45:51.498Z,0.00
2018-08-12T00:46:51.517Z,0.00
2018-08-12T00:47:51.454Z,0.00
2018-08-12T00:48:51.532Z,0.00
2018-08-12T00:49:51.397Z,0.00
2018-08-12T00:50:51.444Z,0.00
2018-08-12T00:51:51.352Z,0.00
2018-08-12T00:52:51.458Z,0.00
2018-08-12T00:53:51.298Z,0.00
2018-08-12T00:54:51.373Z,0.00
2018-08-12T00:55:51.269Z,0.00
2018-08-12T00:56:51.282Z,0.00
2018-08-12T00:57:51.215Z,0.00
2018-08-12T00:58:51.296Z,0.00
2018-08-12T00:59:51.164Z,0.00
2018-08-12T01:00:51.209Z,0.00
2018-08-12T01:01:51.113Z,0.00
2018-08-12T01:02:51.227Z,0.00
2018-08-12T01:03:51.068Z,0.00
2018-08-12T01:04:51.136Z,0.00
2018-08-12T01:05:51.023Z,0.00
2018-08-12T01:06:51.148Z,0.00
2018-08-12T01:07:50.975Z,0.00
2018-08-12T01:08:51.060Z,0.00
2018-08-12T01:09:50.930Z,0.00
2018-08-12T01:10:50.976Z,0.00
2018-08-12T01:11:50.886Z,0.00
2018-08-12T01:12:50.989Z,0.00
2018-08-12T01:13:50.836Z,0.00
2018-08-12T01:14:50.899Z,0.00
2018-08-12T01:15:50.790Z,0.00
2018-08-12T01:16:50.911Z,0.00
2018-08-12T01:17:50.744Z,0.00
2018-08-12T01:18:50.825Z,0.00
2018-08-12T01:19:50.697Z,0.00
2018-08-12T01:20:50.842Z,0.00
2018-08-12T01:21:50.653Z,0.00
2018-08-12T01:22:50.753Z,0.00
2018-08-12T01:23:50.615Z,0.00
2018-08-12T01:24:50.777Z,0.00
2018-08-12T01:25:50.564Z,0.00
2018-08-12T01:26:50.677Z,0.00
2018-08-12T01:27:50.515Z,0.00
2018-08-12T01:28:50.588Z,0.00
2018-08-12T01:29:50.471Z,0.00
2018-08-12T01:30:50.602Z,0.00
2018-08-12T01:31:50.420Z,0.00
2018-08-12T01:32:50.515Z,0.00
2018-08-12T01:33:50.376Z,0.00
2018-08-12T01:34:50.527Z,0.00
2018-08-12T01:35:50.335Z,0.00
2018-08-12T01:36:50.442Z,0.00
2018-08-12T01:37:50.282Z,0.00
2018-08-12T01:38:50.351Z,0.00
2018-08-12T01:39:50.233Z,0.00
2018-08-12T01:40:50.370Z,0.00
2018-08-12T01:41:50.185Z,0.00
2018-08-12T01:42:50.281Z,0.00
2018-08-12T01:43:50.142Z,0.00
2018-08-12T01:44:50.295Z,0.00
2018-08-12T01:45:50.098Z,0.00
2018-08-12T01:46:50.208Z,0.00
2018-08-12T01:47:50.057Z,0.00
2018-08-12T01:48:50.226Z,0.00
2018-08-12T01:49:50.002Z,0.00
2018-08-12T01:50:50.137Z,0.00
2018-08-12T01:51:49.952Z,0.00
2018-08-12T01:52:50.043Z,0.00
2018-08-12T01:53:49.909Z,0.00
2018-08-12T01:54:50.066Z,0.00
2018-08-12T01:55:49.864Z,0.00
2018-08-12T01:56:49.968Z,0.00
2018-08-12T01:57:49.816Z,0.00
2018-08-12T01:58:49.987Z,0.00
2018-08-12T01:59:49.770Z,0.00
2018-08-12T02:00:49.896Z,0.00
2018-08-12T02:01:49.722Z,0.00
2018-08-12T02:02:49.808Z,0.00
2018-08-12T02:03:49.684Z,0.00
2018-08-12T02:04:49.821Z,0.00
2018-08-12T02:05:49.633Z,0.00
2018-08-12T02:06:49.733Z,0.00
2018-08-12T02:07:49.586Z,0.00
2018-08-12T02:08:49.747Z,0.00
2018-08-12T02:09:49.533Z,0.00
2018-08-12T02:10:49.663Z,0.00
2018-08-12T02:11:49.489Z,0.00
2018-08-12T02:12:49.673Z,0.00
2018-08-12T02:13:49.443Z,0.00
2018-08-12T02:14:49.585Z,0.00
2018-08-12T02:15:49.393Z,0.00
2018-08-12T02:16:49.501Z,0.00
2018-08-12T02:17:49.350Z,0.00
2018-08-12T02:18:49.509Z,0.00
2018-08-12T02:19:49.302Z,0.00
2018-08-12T02:20:49.323Z,0.00
2018-08-12T02:21:49.253Z,0.00
2018-08-12T02:22:49.335Z,0.00
2018-08-12T02:23:49.210Z,0.00
2018-08-12T02:24:49.255Z,0.00
2018-08-12T02:25:49.160Z,0.00
2018-08-12T02:26:49.262Z,0.00
2018-08-12T02:27:49.118Z,0.00
2018-08-12T02:28:49.170Z,0.00
2018-08-12T02:29:49.069Z,0.00
2018-08-12T02:30:49.085Z,0.00
2018-08-12T02:31:49.019Z,0.00
2018-08-12T02:32:49.100Z,0.00
2018-08-12T02:33:48.975Z,0.00
2018-08-12T02:34:49.016Z,0.00
2018-08-12T02:35:48.928Z,0.00
2018-08-12T02:36:49.025Z,0.00
2018-08-12T02:37:48.880Z,0.00
2018-08-12T02:38:48.937Z,0.00
2018-08-12T02:39:48.830Z,0.00
2018-08-12T02:40:48.847Z,0.00
2018-08-12T02:41:48.788Z,0.00
2018-08-12T02:42:48.860Z,0.00
2018-08-12T02:43:48.739Z,0.00
2018-08-12T02:44:48.775Z,0.00
2018-08-12T02:45:48.695Z,0.00
2018-08-12T02:46:48.791Z,0.00
2018-08-12T02:47:48.647Z,0.00
2018-08-12T02:48:48.704Z,0.00
2018-08-12T02:49:48.596Z,0.00
2018-08-12T02:50:48.721Z,0.00
2018-08-12T02:51:48.554Z,0.00
2018-08-12T02:52:48.627Z,0.00
2018-08-12T02:53:48.506Z,0.00
2018-08-12T02:54:48.540Z,0.00
2018-08-12T02:55:48.456Z,0.00
2018-08-12T02:56:48.549Z,0.00
2018-08-12T02:57:48.410Z,0.00
2018-08-12T02:58:48.464Z,0.00
2018-08-12T02:59:48.362Z,0.00
2018-08-12T03:00:48.480Z,0.00
2018-08-12T03:01:48.315Z,0.00
2018-08-12T03:02:48.390Z,0.00
2018-08-12T03:03:48.268Z,0.00
2018-08-12T03:04:48.303Z,0.00
2018-08-12T03:05:48.221Z,0.00
2018-08-12T03:06:48.317Z,0.00
2018-08-12T03:07:48.173Z,0.00
2018-08-12T03:08:48.228Z,0.00
2018-08-12T03:09:48.128Z,0.00
2018-08-12T03:10:48.246Z,0.00
2018-08-12T03:11:48.083Z,0.00
2018-08-12T03:12:48.156Z,0.00
2018-08-12T03:13:48.032Z,0.00
2018-08-12T03:14:48.171Z,0.00
2018-08-12T03:15:47.984Z,0.00
2018-08-12T03:16:48.085Z,0.00
2018-08-12T03:17:47.946Z,0.00
2018-08-12T03:18:47.993Z,0.00
2018-08-12T03:19:47.892Z,0.00
2018-08-12T03:20:48.010Z,0.00
2018-08-12T03:21:47.846Z,0.00
2018-08-12T03:22:47.920Z,0.00
2018-08-12T03:23:47.795Z,0.00
2018-08-12T03:24:47.934Z,0.00
2018-08-12T03:25:47.749Z,0.00
2018-08-12T03:26:47.849Z,0.00
2018-08-12T03:27:47.701Z,0.00
2018-08-12T03:28:47.757Z,0.00
2018-08-12T03:29:47.654Z,0.00
2018-08-12T03:30:47.772Z,0.00
2018-08-12T03:31:47.614Z,0.00
2018-08-12T03:32:47.681Z,0.00
2018-08-12T03:33:47.566Z,0.00
2018-08-12T03:34:47.713Z,0.00
2018-08-12T03:35:47.511Z,0.00
2018-08-12T03:36:47.609Z,0.00
2018-08-12T03:37:47.467Z,0.00
2018-08-12T03:38:47.621Z,0.00
2018-08-12T03:39:47.416Z,0.00
2018-08-12T03:40:47.534Z,0.00
2018-08-12T03:41:47.414Z,0.00
2018-08-12T03:42:47.446Z,0.00
2018-08-12T03:43:47.321Z,0.00
2018-08-12T03:44:47.461Z,0.00
2018-08-12T03:45:47.274Z,0.00
2018-08-12T03:46:47.371Z,0.00
2018-08-12T03:47:47.228Z,0.00
2018-08-12T03:48:47.392Z,0.00
2018-08-12T03:49:47.226Z,0.00
2018-08-12T03:50:47.298Z,4.00
2018-08-12T03:51:47.134Z,0.00
2018-08-12T03:52:47.208Z,0.00
2018-08-12T03:53:47.086Z,4.00
2018-08-12T03:54:47.224Z,0.00
2018-08-12T03:55:47.037Z,4.00
2018-08-12T03:56:47.136Z,4.00
2018-08-12T03:57:47.000Z,4.00
2018-08-12T03:58:47.150Z,4.00
2018-08-12T03:59:46.942Z,8.00
2018-08-12T04:00:47.060Z,4.00
2018-08-12T04:01:46.897Z,8.00
2018-08-12T04:02:47.075Z,8.00
2018-08-12T04:03:46.848Z,8.00
2018-08-12T04:04:46.987Z,12.00
2018-08-12T04:05:46.802Z,12.00
2018-08-12T04:06:46.900Z,16.00
2018-08-12T04:07:46.757Z,16.00
2018-08-12T04:08:46.917Z,16.00
2018-08-12T04:09:46.705Z,24.00
2018-08-12T04:10:46.825Z,24.00
2018-08-12T04:11:46.657Z,28.00
2018-08-12T04:12:46.843Z,28.00
2018-08-12T04:13:46.620Z,32.00
2018-08-12T04:14:46.752Z,36.00
2018-08-12T04:15:46.563Z,40.00
2018-08-12T04:16:46.662Z,44.00
2018-08-12T04:17:46.517Z,52.00
2018-08-12T04:18:46.575Z,52.00
2018-08-12T04:19:46.469Z,56.00
2018-08-12T04:20:46.487Z,68.00
2018-08-12T04:21:46.436Z,72.00
2018-08-12T04:22:46.503Z,80.00
2018-08-12T04:23:46.375Z,88.00
2018-08-12T04:24:46.402Z,96.00
2018-08-12T04:25:46.325Z,104.00
2018-08-12T04:26:46.426Z,112.00
2018-08-12T04:27:46.277Z,120.00
2018-08-12T04:28:46.338Z,132.00
2018-08-12T04:29:46.232Z,136.00
2018-08-12T04:30:46.253Z,148.00
2018-08-12T04:31:46.182Z,160.00
2018-08-12T04:32:46.266Z,176.00
2018-08-12T04:33:46.138Z,188.00
2018-08-12T04:34:46.177Z,200.00
2018-08-12T04:35:46.086Z,208.00
2018-08-12T04:36:46.193Z,216.00
2018-08-12T04:37:46.040Z,224.00
2018-08-12T04:38:46.102Z,232.00
2018-08-12T04:39:45.992Z,240.00
2018-08-12T04:40:46.022Z,244.00
2018-08-12T04:41:45.947Z,256.00
2018-08-12T04:42:46.030Z,260.00
2018-08-12T04:43:45.900Z,272.00
2018-08-12T04:44:45.941Z,276.00
2018-08-12T04:45:45.849Z,284.00
2018-08-12T04:46:45.955Z,292.00
2018-08-12T04:47:45.800Z,296.00
2018-08-12T04:48:45.866Z,304.00
2018-08-12T04:49:45.757Z,308.00
2018-08-12T04:50:45.775Z,312.00
2018-08-12T04:51:45.709Z,320.00
2018-08-12T04:52:45.798Z,324.00
2018-08-12T04:53:45.661Z,328.00
2018-08-12T04:54:45.703Z,336.00
2018-08-12T04:55:45.611Z,340.00
2018-08-12T04:56:45.716Z,344.00
2018-08-12T04:57:45.564Z,348.00
2018-08-12T04:58:45.630Z,352.00
2018-08-12T04:59:45.515Z,356.00
2018-08-12T05:00:45.644Z,356.00
2018-08-12T05:01:45.475Z,356.00
2018-08-12T05:02:45.557Z,352.00
2018-08-12T05:03:45.422Z,356.00
2018-08-12T05:04:45.469Z,356.00
2018-08-12T05:05:45.390Z,360.00
2018-08-12T05:06:45.483Z,364.00
2018-08-12T05:07:45.326Z,364.00
2018-08-12T05:08:45.393Z,372.00
2018-08-12T05:09:45.281Z,372.00
2018-08-12T05:10:45.407Z,376.00
2018-08-12T05:11:45.233Z,380.00
2018-08-12T05:12:45.320Z,384.00
2018-08-12T05:13:45.187Z,396.00
2018-08-12T05:14:45.230Z,404.00
2018-08-12T05:15:45.139Z,412.00
2018-08-12T05:16:45.247Z,420.00
2018-08-12T05:17:45.093Z,424.00
2018-08-12T05:18:45.161Z,428.00
2018-08-12T05:19:45.047Z,432.00
2018-08-12T05:20:45.170Z,440.00
2018-08-12T05:21:44.995Z,448.00
2018-08-12T05:22:45.082Z,452.00
2018-08-12T05:23:44.949Z,460.00
2018-08-12T05:24:45.100Z,464.00
2018-08-12T05:25:44.897Z,468.00
2018-08-12T05:26:45.013Z,472.00
2018-08-12T05:27:44.859Z,476.00
2018-08-12T05:28:44.921Z,480.00
2018-08-12T05:29:44.807Z,488.00
2018-08-12T05:30:44.938Z,492.00
2018-08-12T05:31:44.762Z,500.00
2018-08-12T05:32:44.851Z,504.00
2018-08-12T05:33:44.713Z,512.00
2018-08-12T05:34:44.856Z,520.00
2018-08-12T05:35:44.670Z,524.00
2018-08-12T05:36:44.775Z,532.00
2018-08-12T05:37:44.619Z,536.00
2018-08-12T05:38:44.790Z,540.00
2018-08-12T05:39:44.570Z,544.00
2018-08-12T05:40:44.701Z,552.00
2018-08-12T05:41:44.526Z,548.00
2018-08-12T05:42:44.613Z,544.00
2018-08-12T05:43:44.476Z,536.00
2018-08-12T05:44:44.628Z,532.00
2018-08-12T05:45:44.433Z,536.00
2018-08-12T05:46:44.555Z,544.00
2018-08-12T05:47:44.391Z,556.00
2018-08-12T05:48:44.555Z,572.00
2018-08-12T05:49:44.338Z,568.00
2018-08-12T05:50:44.468Z,576.00
2018-08-12T05:51:44.296Z,568.00
2018-08-12T05:52:44.381Z,580.00
2018-08-12T05:53:44.254Z,596.00
2018-08-12T05:54:44.394Z,584.00
2018-08-12T05:55:44.198Z,584.00
2018-08-12T05:56:44.306Z,592.00
2018-08-12T05:57:44.154Z,608.00
2018-08-12T05:58:44.322Z,624.00
2018-08-12T05:59:44.106Z,648.00
2018-08-12T06:00:44.231Z,676.00
2018-08-12T06:01:44.107Z,708.00
2018-08-12T06:02:44.323Z,736.00
2018-08-12T06:03:44.014Z,768.00
2018-08-12T06:04:44.159Z,796.00
2018-08-12T06:05:43.965Z,828.00
2018-08-12T06:06:44.071Z,860.00
2018-08-12T06:07:43.917Z,900.00
2018-08-12T06:08:44.140Z,936.00
2018-08-12T06:09:43.875Z,964.00
2018-08-12T06:10:43.996Z,964.00
2018-08-12T06:11:43.826Z,980.00
2018-08-12T06:12:44.010Z,972.00
2018-08-12T06:13:43.782Z,988.00
2018-08-12T06:14:43.922Z,984.00
2018-08-12T06:15:43.732Z,992.00
2018-08-12T06:16:43.835Z,988.00
2018-08-12T06:17:43.726Z,996.00
2018-08-12T06:18:43.745Z,988.00
2018-08-12T06:19:43.671Z,956.00
2018-08-12T06:20:43.656Z,956.00
2018-08-12T06:21:43.644Z,924.00
2018-08-12T06:22:43.686Z,904.00
2018-08-12T06:23:43.551Z,888.00
2018-08-12T06:24:43.580Z,892.00
2018-08-12T06:25:43.526Z,864.00
2018-08-12T06:26:43.595Z,836.00
2018-08-12T06:27:43.474Z,824.00
2018-08-12T06:28:43.505Z,812.00
2018-08-12T06:29:43.415Z,808.00
2018-08-12T06:30:43.520Z,804.00
2018-08-12T06:31:43.366Z,812.00
2018-08-12T06:32:43.433Z,816.00
2018-08-12T06:33:43.324Z,824.00
2018-08-12T06:34:43.344Z,848.00
2018-08-12T06:35:43.277Z,816.00
2018-08-12T06:36:43.358Z,816.00
2018-08-12T06:37:43.229Z,816.00
2018-08-12T06:38:43.272Z,828.00
2018-08-12T06:39:43.229Z,840.00
2018-08-12T06:40:43.332Z,856.00
2018-08-12T06:41:43.137Z,876.00
2018-08-12T06:42:43.197Z,896.00
2018-08-12T06:43:43.094Z,916.00
2018-08-12T06:44:43.209Z,940.00
2018-08-12T06:45:43.047Z,956.00
2018-08-12T06:46:43.150Z,968.00
2018-08-12T06:47:43.002Z,968.00
2018-08-12T06:48:43.034Z,988.00
2018-08-12T06:49:42.961Z,1012.00
2018-08-12T06:50:43.050Z,1020.00
2018-08-12T06:51:42.995Z,1012.00
2018-08-12T06:52:42.960Z,1004.00
2018-08-12T06:53:42.869Z,1044.00
2018-08-12T06:54:42.974Z,1048.00
2018-08-12T06:55:42.816Z,1036.00
2018-08-12T06:56:42.893Z,1056.00
2018-08-12T06:57:42.775Z,1080.00
2018-08-12T06:58:42.900Z,1080.00
2018-08-12T06:59:42.728Z,1084.00
2018-08-12T07:00:42.811Z,1104.00
2018-08-12T07:01:42.685Z,1108.00
2018-08-12T07:02:42.726Z,1120.00
2018-08-12T07:03:42.641Z,1132.00
2018-08-12T07:04:42.738Z,1144.00
2018-08-12T07:05:42.595Z,1164.00
2018-08-12T07:06:42.709Z,1180.00
2018-08-12T07:07:42.554Z,1180.00
2018-08-12T07:08:42.664Z,1184.00
2018-08-12T07:09:42.502Z,1200.00
2018-08-12T07:10:42.575Z,1208.00
2018-08-12T07:11:42.459Z,1228.00
2018-08-12T07:12:42.589Z,1224.00
2018-08-12T07:13:42.414Z,1216.00
2018-08-12T07:14:42.497Z,1192.00
2018-08-12T07:15:42.366Z,1156.00
2018-08-12T07:16:42.513Z,1136.00
2018-08-12T07:17:42.326Z,1140.00
2018-08-12T07:18:42.431Z,1152.00
2018-08-12T07:19:42.282Z,1176.00
2018-08-12T07:20:42.340Z,1212.00
2018-08-12T07:21:42.239Z,1216.00
2018-08-12T07:22:42.356Z,1220.00
2018-08-12T07:23:42.189Z,1232.00
2018-08-12T07:24:42.291Z,1256.00
2018-08-12T07:25:42.150Z,1236.00
2018-08-12T07:26:42.288Z,1228.00
2018-08-12T07:27:42.101Z,1176.00
2018-08-12T07:28:42.195Z,1160.00
2018-08-12T07:29:42.056Z,1156.00
2018-08-12T07:30:42.213Z,1156.00
2018-08-12T07:31:42.014Z,1160.00
2018-08-12T07:32:42.131Z,1180.00
2018-08-12T07:33:41.968Z,1240.00
2018-08-12T07:34:42.134Z,1252.00
2018-08-12T07:35:41.921Z,1248.00
2018-08-12T07:36:42.048Z,1224.00
2018-08-12T07:37:41.891Z,1200.00
2018-08-12T07:38:42.018Z,1208.00
2018-08-12T07:39:41.837Z,1272.00
2018-08-12T07:40:41.872Z,1224.00
2018-08-12T07:41:41.794Z,1212.00
2018-08-12T07:42:41.883Z,1208.00
2018-08-12T07:43:41.752Z,1232.00
2018-08-12T07:44:41.897Z,1348.00
2018-08-12T07:45:41.707Z,1384.00
2018-08-12T07:46:41.707Z,1400.00
2018-08-12T07:47:41.666Z,1412.00
2018-08-12T07:48:42.376Z,1424.00
2018-08-12T07:49:41.622Z,1428.00
2018-08-12T07:50:41.634Z,1428.00
2018-08-12T07:51:41.575Z,1436.00
2018-08-12T07:52:41.750Z,1444.00
2018-08-12T07:53:41.526Z,1452.00
2018-08-12T07:54:41.669Z,1464.00
2018-08-12T07:55:41.608Z,1472.00
2018-08-12T07:56:41.679Z,1468.00
2018-08-12T07:57:41.444Z,1460.00
2018-08-12T07:58:41.586Z,1456.00
2018-08-12T07:59:41.404Z,1460.00
2018-08-12T08:00:41.515Z,1456.00
2018-08-12T08:01:41.358Z,1436.00
2018-08-12T08:02:41.521Z,1456.00
2018-08-12T08:03:41.320Z,1464.00
2018-08-12T08:04:41.432Z,1456.00
2018-08-12T08:05:41.272Z,1468.00
2018-08-12T08:06:41.450Z,1476.00
2018-08-12T08:07:41.233Z,1484.00
2018-08-12T08:08:41.353Z,1484.00
2018-08-12T08:09:41.194Z,1492.00
2018-08-12T08:10:41.268Z,1492.00
2018-08-12T08:11:41.147Z,1488.00
2018-08-12T08:12:41.295Z,1484.00
2018-08-12T08:13:41.102Z,1496.00
2018-08-12T08:14:41.191Z,1508.00
2018-08-12T08:15:41.061Z,1508.00
2018-08-12T08:16:41.105Z,1512.00
2018-08-12T08:17:41.020Z,1516.00
2018-08-12T08:18:41.119Z,1528.00
2018-08-12T08:19:41.042Z,1560.00
2018-08-12T08:20:41.029Z,1564.00
2018-08-12T08:21:40.938Z,1572.00
2018-08-12T08:22:41.046Z,1588.00
2018-08-12T08:23:40.887Z,1600.00
2018-08-12T08:24:40.955Z,1612.00
2018-08-12T08:25:40.892Z,1628.00
2018-08-12T08:26:40.865Z,1644.00
2018-08-12T08:27:40.811Z,1656.00
2018-08-12T08:28:40.889Z,1672.00
2018-08-12T08:29:40.771Z,1688.00
2018-08-12T08:30:40.812Z,1696.00
2018-08-12T08:31:40.927Z,1708.00
2018-08-12T08:32:40.809Z,1724.00
2018-08-12T08:33:40.694Z,1744.00
2018-08-12T08:34:40.717Z,1760.00
2018-08-12T08:35:40.650Z,1768.00
2018-08-12T08:36:40.734Z,1784.00
2018-08-12T08:37:40.607Z,1796.00
2018-08-12T08:38:40.614Z,1824.00
2018-08-12T08:39:40.563Z,1840.00
2018-08-12T08:40:40.635Z,1856.00
2018-08-12T08:41:40.528Z,1880.00
2018-08-12T08:42:40.575Z,1900.00
2018-08-12T08:43:40.484Z,1908.00
2018-08-12T08:44:40.488Z,1928.00
2018-08-12T08:45:40.445Z,1952.00
2018-08-12T08:46:40.500Z,1964.00
2018-08-12T08:47:40.405Z,1984.00
2018-08-12T08:48:40.389Z,2008.00
2018-08-12T08:49:40.353Z,2020.00
2018-08-12T08:50:40.425Z,2032.00
2018-08-12T08:51:40.343Z,2060.00
2018-08-12T08:52:40.333Z,2072.00
2018-08-12T08:53:40.281Z,2088.00
2018-08-12T08:54:40.346Z,2100.00
2018-08-12T08:55:40.267Z,2140.00
2018-08-12T08:56:40.263Z,2152.00
2018-08-12T08:57:40.208Z,2192.00
2018-08-12T08:58:40.275Z,2216.00
2018-08-12T08:59:40.161Z,2228.00
2018-08-12T09:00:40.187Z,2248.00
2018-08-12T09:01:40.120Z,2256.00
2018-08-12T09:02:40.203Z,2256.00
2018-08-12T09:03:40.081Z,2260.00
2018-08-12T09:04:40.120Z,2272.00
2018-08-12T09:05:40.105Z,2288.00
2018-08-12T09:06:40.208Z,2284.00
2018-08-12T09:07:40.004Z,2296.00
2018-08-12T09:08:41.288Z,2304.00
2018-08-12T09:09:39.966Z,2344.00
2018-08-12T09:10:40.052Z,2348.00
2018-08-12T09:11:39.925Z,2384.00
2018-08-12T09:12:39.963Z,2416.00
2018-08-12T09:13:39.888Z,2432.00
2018-08-12T09:14:39.984Z,2420.00
2018-08-12T09:15:39.848Z,2436.00
2018-08-12T09:16:39.891Z,2412.00
2018-08-12T09:17:39.814Z,2416.00
2018-08-12T09:18:39.906Z,2412.00
2018-08-12T09:19:39.773Z,2392.00
2018-08-12T09:20:39.841Z,2364.00
2018-08-12T09:21:39.731Z,2388.00
2018-08-12T09:22:39.726Z,2400.00
2018-08-12T09:23:39.698Z,2568.00
2018-08-12T09:24:39.752Z,2428.00
2018-08-12T09:25:39.665Z,2444.00
2018-08-12T09:26:39.655Z,2436.00
2018-08-12T09:27:39.624Z,2464.00
2018-08-12T09:28:39.673Z,2468.00
2018-08-12T09:29:39.589Z,2424.00
2018-08-12T09:30:39.579Z,2516.00
2018-08-12T09:31:39.549Z,2540.00
2018-08-12T09:32:39.595Z,2592.00
2018-08-12T09:33:39.514Z,2624.00
2018-08-12T09:34:39.506Z,2636.00
2018-08-12T09:35:39.479Z,2672.00
2018-08-12T09:36:39.520Z,2696.00
2018-08-12T09:37:39.438Z,2720.00
2018-08-12T09:38:39.430Z,2748.00
2018-08-12T09:39:39.404Z,2776.00
2018-08-12T09:40:39.449Z,2800.00
2018-08-12T09:41:39.363Z,2812.00
2018-08-12T09:42:39.460Z,2812.00
2018-08-12T09:43:39.330Z,2768.00
2018-08-12T09:44:39.371Z,2760.00
2018-08-12T09:45:39.290Z,2764.00
2018-08-12T09:46:39.386Z,2788.00
2018-08-12T09:47:39.263Z,2812.00
2018-08-12T09:48:39.294Z,2780.00
2018-08-12T09:49:39.222Z,2840.00
2018-08-12T09:50:39.313Z,2856.00
2018-08-12T09:51:39.267Z,2888.00
2018-08-12T09:52:39.328Z,2960.00
2018-08-12T09:53:39.173Z,2888.00
2018-08-12T09:54:39.341Z,2916.00
2018-08-12T09:55:39.119Z,2988.00
2018-08-12T09:56:39.127Z,3032.00
2018-08-12T09:57:39.091Z,3068.00
2018-08-12T09:58:39.266Z,3120.00
2018-08-12T09:59:39.051Z,3172.00
2018-08-12T10:00:39.181Z,3224.00
2018-08-12T10:01:39.015Z,3256.00
2018-08-12T10:02:39.191Z,3300.00
2018-08-12T10:03:38.985Z,3244.00
2018-08-12T10:04:39.103Z,3216.00
2018-08-12T10:05:38.947Z,3216.00
2018-08-12T10:06:39.117Z,3224.00
2018-08-12T10:07:38.914Z,3208.00
2018-08-12T10:08:38.928Z,3240.00
2018-08-12T10:09:38.882Z,3220.00
2018-08-12T10:10:38.942Z,3216.00
2018-08-12T10:11:38.860Z,3244.00
2018-08-12T10:12:38.854Z,3208.00
2018-08-12T10:13:38.818Z,3180.00
2018-08-12T10:14:38.874Z,3120.00
2018-08-12T10:15:38.851Z,3164.00
2018-08-12T10:16:38.888Z,3172.00
2018-08-12T10:17:38.751Z,3168.00
2018-08-12T10:18:38.794Z,3176.00
2018-08-12T10:19:38.720Z,3160.00
2018-08-12T10:20:38.909Z,3172.00
2018-08-12T10:21:38.714Z,3216.00
2018-08-12T10:22:38.728Z,3252.00
2018-08-12T10:23:38.656Z,3284.00
2018-08-12T10:24:38.738Z,3252.00
2018-08-12T10:25:38.628Z,2924.00
2018-08-12T10:26:38.775Z,2708.00
2018-08-12T10:27:38.595Z,2792.00
2018-08-12T10:28:38.660Z,2720.00
2018-08-12T10:29:38.568Z,3084.00
2018-08-12T10:30:38.704Z,3116.00
2018-08-12T10:31:38.537Z,3184.00
2018-08-12T10:32:38.590Z,3220.00
2018-08-12T10:33:38.508Z,3192.00
2018-08-12T10:34:38.606Z,3232.00
2018-08-12T10:35:38.470Z,3248.00
2018-08-12T10:36:38.512Z,3260.00
2018-08-12T10:37:38.442Z,3324.00
2018-08-12T10:38:38.530Z,3372.00
2018-08-12T10:39:38.410Z,3420.00
2018-08-12T10:40:38.440Z,3424.00
2018-08-12T10:41:38.381Z,3476.00
2018-08-12T10:42:38.455Z,3292.00
2018-08-12T10:43:38.350Z,3456.00
2018-08-12T10:44:38.467Z,3484.00
2018-08-12T10:45:38.329Z,3560.00
2018-08-12T10:46:38.383Z,3556.00
2018-08-12T10:47:38.282Z,3576.00
2018-08-12T10:48:38.392Z,3576.00
2018-08-12T10:49:38.264Z,3600.00
2018-08-12T10:50:38.304Z,3600.00
2018-08-12T10:51:38.232Z,3612.00
2018-08-12T10:52:38.324Z,3604.00
2018-08-12T10:53:38.200Z,3608.00
2018-08-12T10:54:38.380Z,3608.00
2018-08-12T10:55:38.170Z,3596.00
2018-08-12T10:56:38.245Z,3592.00
2018-08-12T10:57:38.146Z,3608.00
2018-08-12T10:58:38.261Z,3624.00
2018-08-12T10:59:38.115Z,3612.00
2018-08-12T11:00:38.170Z,3600.00
2018-08-12T11:01:38.084Z,3580.00
2018-08-12T11:02:38.081Z,3544.00
2018-08-12T11:03:38.053Z,3504.00
2018-08-12T11:04:38.201Z,3508.00
2018-08-12T11:05:38.027Z,3472.00
2018-08-12T11:06:38.108Z,3468.00
2018-08-12T11:07:37.997Z,3432.00
2018-08-12T11:08:37.990Z,3416.00
2018-08-12T11:09:38.129Z,3548.00
2018-08-12T11:10:37.955Z,3516.00
2018-08-12T11:11:38.044Z,3412.00
2018-08-12T11:12:37.956Z,3468.00
2018-08-12T11:13:38.060Z,3596.00
2018-08-12T11:14:37.902Z,3556.00
2018-08-12T11:15:37.968Z,3592.00
2018-08-12T11:16:37.868Z,3640.00
2018-08-12T11:17:38.031Z,3632.00
2018-08-12T11:18:37.846Z,3664.00
2018-08-12T11:19:37.995Z,3716.00
2018-08-12T11:20:37.860Z,3684.00
2018-08-12T11:21:37.913Z,3684.00
2018-08-12T11:22:37.816Z,3728.00
2018-08-12T11:23:37.926Z,3752.00
2018-08-12T11:24:37.767Z,3844.00
2018-08-12T11:25:37.844Z,4024.00
2018-08-12T11:26:37.746Z,4156.00
2018-08-12T11:27:37.853Z,4252.00
2018-08-12T11:28:37.760Z,4336.00
2018-08-12T11:29:37.865Z,4404.00
2018-08-12T11:30:37.772Z,4444.00
2018-08-12T11:31:37.660Z,3520.00
2018-08-12T11:32:37.785Z,4436.00
2018-08-12T11:33:37.644Z,4300.00
2018-08-12T11:34:37.806Z,4360.00
2018-08-12T11:35:37.608Z,4416.00
2018-08-12T11:36:37.593Z,4364.00
2018-08-12T11:37:37.736Z,4280.00
2018-08-12T11:38:37.572Z,4200.00
2018-08-12T11:39:37.737Z,4148.00
2018-08-12T11:40:37.541Z,4180.00
2018-08-12T11:41:37.644Z,4016.00
2018-08-12T11:42:37.517Z,3940.00
2018-08-12T11:43:37.658Z,3920.00
2018-08-12T11:44:37.518Z,4016.00
2018-08-12T11:45:37.674Z,4028.00
2018-08-12T11:46:37.463Z,3940.00
2018-08-12T11:47:37.656Z,3804.00
2018-08-12T11:48:37.440Z,3792.00
2018-08-12T11:49:37.601Z,3696.00
2018-08-12T11:50:37.423Z,3608.00
2018-08-12T11:51:37.524Z,3652.00
2018-08-12T11:52:37.395Z,3640.00
2018-08-12T11:53:37.423Z,3596.00
2018-08-12T11:54:37.370Z,3588.00
2018-08-12T11:55:37.439Z,3536.00
2018-08-12T11:56:37.340Z,3748.00
2018-08-12T11:57:37.348Z,3472.00
2018-08-12T11:58:37.315Z,3412.00
2018-08-12T11:59:37.365Z,3440.00
2018-08-12T12:00:37.293Z,3828.00
2018-08-12T12:01:37.379Z,3688.00
2018-08-12T12:02:37.265Z,3764.00
2018-08-12T12:03:37.300Z,3744.00
2018-08-12T12:04:37.238Z,3800.00
2018-08-12T12:05:37.305Z,3804.00
2018-08-12T12:06:37.212Z,3792.00
2018-08-12T12:07:37.217Z,3820.00
2018-08-12T12:08:37.189Z,3652.00
2018-08-12T12:09:37.229Z,3388.00
2018-08-12T12:10:37.175Z,3664.00
2018-08-12T12:11:37.252Z,3824.00
2018-08-12T12:12:37.141Z,3808.00
2018-08-12T12:13:37.159Z,3912.00
2018-08-12T12:14:37.113Z,3836.00
2018-08-12T12:15:37.168Z,3828.00
2018-08-12T12:16:37.091Z,3692.00
2018-08-12T12:17:37.231Z,3648.00
2018-08-12T12:18:37.063Z,3596.00
2018-08-12T12:19:37.145Z,3528.00
2018-08-12T12:20:37.122Z,3544.00
2018-08-12T12:21:37.112Z,3532.00
2018-08-12T12:22:37.031Z,3492.00
2018-08-12T12:23:37.021Z,3468.00
2018-08-12T12:24:36.987Z,3332.00
2018-08-12T12:25:37.038Z,3304.00
2018-08-12T12:26:36.969Z,3276.00
2018-08-12T12:27:37.052Z,3220.00
2018-08-12T12:28:36.932Z,3336.00
2018-08-12T12:29:36.926Z,3328.00
2018-08-12T12:30:36.970Z,3316.00
2018-08-12T12:31:36.904Z,3324.00
2018-08-12T12:32:36.985Z,3244.00
2018-08-12T12:33:36.880Z,3192.00